sensor_id;sensor_type;location;lat;lon;timestamp;pressure;altitude;pressure_sealevel;temperature;humidity
80678;BME280;70042;52.494;5.502;2023-08-06T00:02:20;100651.66;;;21.32;70.24
80678;BME280;70042;52.494;5.502;2023-08-06T00:04:45;100653.44;;;21.31;70.12
80678;BME280;70042;52.494;5.502;2023-08-06T00:07:11;100660.50;;;21.32;70.16
80678;BME280;70042;52.494;5.502;2023-08-06T00:09:36;100652.53;;;21.32;70.91
80678;BME280;70042;52.494;5.502;2023-08-06T00:12:02;100648.94;;;21.33;70.97
80678;BME280;70042;52.494;5.502;2023-08-06T00:14:27;100652.53;;;21.32;70.86
80678;BME280;70042;52.494;5.502;2023-08-06T00:16:53;100644.56;;;21.32;70.83
80678;BME280;70042;52.494;5.502;2023-08-06T00:19:21;100649.00;;;21.32;70.55
80678;BME280;70042;52.494;5.502;2023-08-06T00:21:49;100643.69;;;21.32;70.52
80678;BME280;70042;52.494;5.502;2023-08-06T00:24:36;100647.25;;;21.31;70.41
80678;BME280;70042;52.494;5.502;2023-08-06T00:27:05;100644.69;;;21.29;70.30
80678;BME280;70042;52.494;5.502;2023-08-06T00:30:06;100641.16;;;21.28;70.23
80678;BME280;70042;52.494;5.502;2023-08-06T00:32:43;100648.25;;;21.28;70.34
80678;BME280;70042;52.494;5.502;2023-08-06T00:35:52;100639.38;;;21.29;70.18
80678;BME280;70042;52.494;5.502;2023-08-06T00:41:40;100642.16;;;21.26;70.21
80678;BME280;70042;52.494;5.502;2023-08-06T00:44:15;100631.66;;;21.23;70.20
80678;BME280;70042;52.494;5.502;2023-08-06T00:47:13;100637.13;;;21.20;70.03
80678;BME280;70042;52.494;5.502;2023-08-06T00:53:05;100630.88;;;21.21;70.11
80678;BME280;70042;52.494;5.502;2023-08-06T00:59:01;100634.59;;;21.17;70.20
80678;BME280;70042;52.494;5.502;2023-08-06T01:01:36;100632.81;;;21.17;69.67
80678;BME280;70042;52.494;5.502;2023-08-06T01:04:31;100624.81;;;21.17;69.79
80678;BME280;70042;52.494;5.502;2023-08-06T01:15:45;100630.16;;;21.17;69.88
80678;BME280;70042;52.494;5.502;2023-08-06T01:31:48;100639.16;;;21.13;70.01
80678;BME280;70042;52.494;5.502;2023-08-06T01:34:41;100634.72;;;21.14;69.78
80678;BME280;70042;52.494;5.502;2023-08-06T01:37:24;100630.41;;;21.11;69.88
80678;BME280;70042;52.494;5.502;2023-08-06T01:46:20;100629.41;;;21.14;70.09
80678;BME280;70042;52.494;5.502;2023-08-06T01:59:35;100636.56;;;21.12;70.17
80678;BME280;70042;52.494;5.502;2023-08-06T02:13:47;100646.50;;;21.07;70.05
80678;BME280;70042;52.494;5.502;2023-08-06T02:19:26;100640.25;;;21.08;69.92
80678;BME280;70042;52.494;5.502;2023-08-06T02:55:38;100620.06;;;21.04;69.95
80678;BME280;70042;52.494;5.502;2023-08-06T03:08:36;100619.97;;;21.05;69.82
80678;BME280;70042;52.494;5.502;2023-08-06T03:29:31;100610.47;;;21.00;70.00
80678;BME280;70042;52.494;5.502;2023-08-06T03:41:51;100608.66;;;21.02;69.97
80678;BME280;70042;52.494;5.502;2023-08-06T03:44:37;100607.78;;;21.01;70.35
80678;BME280;70042;52.494;5.502;2023-08-06T03:50:08;100610.34;;;21.03;69.90
80678;BME280;70042;52.494;5.502;2023-08-06T03:52:39;100607.81;;;21.00;69.95
80678;BME280;70042;52.494;5.502;2023-08-06T03:59:46;100614.09;;;20.99;69.97
80678;BME280;70042;52.494;5.502;2023-08-06T04:19:23;100606.19;;;20.97;69.83
80678;BME280;70042;52.494;5.502;2023-08-06T04:21:58;100614.09;;;20.99;69.82
80678;BME280;70042;52.494;5.502;2023-08-06T04:38:57;100624.84;;;20.96;69.95
80678;BME280;70042;52.494;5.502;2023-08-06T04:42:09;100626.63;;;20.95;70.18
80678;BME280;70042;52.494;5.502;2023-08-06T04:44:52;100627.50;;;20.96;69.66
80678;BME280;70042;52.494;5.502;2023-08-06T04:48:19;100628.41;;;20.95;69.61
80678;BME280;70042;52.494;5.502;2023-08-06T04:54:43;100626.69;;;20.94;69.77
80678;BME280;70042;52.494;5.502;2023-08-06T04:57:55;100623.09;;;20.95;69.71
80678;BME280;70042;52.494;5.502;2023-08-06T05:01:12;100630.16;;;20.96;69.78
80678;BME280;70042;52.494;5.502;2023-08-06T05:08:40;100632.00;;;20.94;69.85
80678;BME280;70042;52.494;5.502;2023-08-06T05:11:30;100640.84;;;20.94;70.03
80678;BME280;70042;52.494;5.502;2023-08-06T05:14:52;100642.63;;;20.94;69.96
80678;BME280;70042;52.494;5.502;2023-08-06T05:18:00;100640.88;;;20.93;69.95
80678;BME280;70042;52.494;5.502;2023-08-06T05:27:15;100647.06;;;20.93;69.75
80678;BME280;70042;52.494;5.502;2023-08-06T05:30:17;100647.94;;;20.94;69.63
80678;BME280;70042;52.494;5.502;2023-08-06T05:36:09;100657.69;;;20.93;69.92
80678;BME280;70042;52.494;5.502;2023-08-06T05:42:06;100658.56;;;20.94;69.81
80678;BME280;70042;52.494;5.502;2023-08-06T05:45:18;100660.28;;;20.95;69.78
80678;BME280;70042;52.494;5.502;2023-08-06T05:47:51;100673.63;;;20.93;70.02
80678;BME280;70042;52.494;5.502;2023-08-06T05:50:23;100669.19;;;20.94;70.03
80678;BME280;70042;52.494;5.502;2023-08-06T05:52:48;100660.41;;;20.92;69.95
80678;BME280;70042;52.494;5.502;2023-08-06T05:55:17;100667.53;;;20.91;69.97
80678;BME280;70042;52.494;5.502;2023-08-06T06:01:11;100671.84;;;20.94;69.97
80678;BME280;70042;52.494;5.502;2023-08-06T06:06:49;100670.09;;;20.93;69.75
80678;BME280;70042;52.494;5.502;2023-08-06T06:09:14;100672.69;;;20.94;69.54
80678;BME280;70042;52.494;5.502;2023-08-06T06:11:40;100680.63;;;20.96;69.67
80678;BME280;70042;52.494;5.502;2023-08-06T06:14:05;100683.28;;;20.96;69.70
80678;BME280;70042;52.494;5.502;2023-08-06T06:16:30;100681.47;;;20.96;69.72
80678;BME280;70042;52.494;5.502;2023-08-06T06:18:56;100686.72;;;20.98;69.67
80678;BME280;70042;52.494;5.502;2023-08-06T06:21:23;100692.97;;;20.97;69.60
80678;BME280;70042;52.494;5.502;2023-08-06T06:23:49;100687.72;;;20.95;69.91
80678;BME280;70042;52.494;5.502;2023-08-06T06:26:14;100688.63;;;20.94;70.04
80678;BME280;70042;52.494;5.502;2023-08-06T06:28:39;100691.28;;;20.94;69.75
80678;BME280;70042;52.494;5.502;2023-08-06T06:31:05;100693.91;;;20.96;69.55
80678;BME280;70042;52.494;5.502;2023-08-06T06:33:30;100699.22;;;20.96;69.68
80678;BME280;70042;52.494;5.502;2023-08-06T06:35:56;100702.72;;;20.96;69.64
80678;BME280;70042;52.494;5.502;2023-08-06T06:38:23;100704.53;;;20.96;69.50
80678;BME280;70042;52.494;5.502;2023-08-06T06:40:56;100706.25;;;20.97;69.62
80678;BME280;70042;52.494;5.502;2023-08-06T06:43:22;100701.78;;;20.97;69.57
80678;BME280;70042;52.494;5.502;2023-08-06T06:46:01;100700.00;;;20.98;69.54
80678;BME280;70042;52.494;5.502;2023-08-06T06:48:28;100703.53;;;20.98;69.33
80678;BME280;70042;52.494;5.502;2023-08-06T06:50:54;100702.53;;;21.01;69.84
80678;BME280;70042;52.494;5.502;2023-08-06T06:53:19;100706.97;;;21.00;69.43
80678;BME280;70042;52.494;5.502;2023-08-06T06:55:45;100709.63;;;21.00;69.68
80678;BME280;70042;52.494;5.502;2023-08-06T06:58:14;100706.09;;;21.00;69.67
80678;BME280;70042;52.494;5.502;2023-08-06T07:00:41;100719.34;;;21.01;69.55
80678;BME280;70042;52.494;5.502;2023-08-06T07:03:06;100708.75;;;21.00;69.78
80678;BME280;70042;52.494;5.502;2023-08-06T07:05:32;100706.09;;;21.00;69.67
80678;BME280;70042;52.494;5.502;2023-08-06T07:07:58;100709.59;;;21.02;69.34
80678;BME280;70042;52.494;5.502;2023-08-06T07:10:23;100713.16;;;21.01;69.25
80678;BME280;70042;52.494;5.502;2023-08-06T07:12:48;100709.59;;;21.02;69.35
80678;BME280;70042;52.494;5.502;2023-08-06T07:15:14;100711.28;;;21.03;69.25
80678;BME280;70042;52.494;5.502;2023-08-06T07:17:39;100710.38;;;21.04;69.13
80678;BME280;70042;52.494;5.502;2023-08-06T07:20:05;100713.03;;;21.04;69.33
80678;BME280;70042;52.494;5.502;2023-08-06T07:22:38;100719.22;;;21.04;69.35
80678;BME280;70042;52.494;5.502;2023-08-06T07:25:06;100721.78;;;21.06;69.34
80678;BME280;70042;52.494;5.502;2023-08-06T07:27:35;100720.88;;;21.07;69.21
80678;BME280;70042;52.494;5.502;2023-08-06T07:30:01;100720.84;;;21.08;69.32
80678;BME280;70042;52.494;5.502;2023-08-06T07:32:26;100713.78;;;21.07;69.48
80678;BME280;70042;52.494;5.502;2023-08-06T07:34:53;100721.69;;;21.09;69.24
80678;BME280;70042;52.494;5.502;2023-08-06T07:37:24;100720.84;;;21.08;69.25
80678;BME280;70042;52.494;5.502;2023-08-06T07:39:50;100730.53;;;21.09;69.19
80678;BME280;70042;52.494;5.502;2023-08-06T07:42:15;100728.84;;;21.07;69.19
80678;BME280;70042;52.494;5.502;2023-08-06T07:44:41;100727.00;;;21.09;69.05
80678;BME280;70042;52.494;5.502;2023-08-06T07:47:06;100727.88;;;21.09;68.83
80678;BME280;70042;52.494;5.502;2023-08-06T07:49:34;100743.78;;;21.11;69.14
80678;BME280;70042;52.494;5.502;2023-08-06T07:51:59;100726.88;;;21.12;69.10
80678;BME280;70042;52.494;5.502;2023-08-06T07:54:25;100739.13;;;21.16;69.15
80678;BME280;70042;52.494;5.502;2023-08-06T07:56:50;100728.50;;;21.16;68.94
80678;BME280;70042;52.494;5.502;2023-08-06T07:59:15;100735.56;;;21.17;68.78
80678;BME280;70042;52.494;5.502;2023-08-06T08:01:41;100733.69;;;21.19;68.90
80678;BME280;70042;52.494;5.502;2023-08-06T08:04:06;100738.88;;;21.22;68.86
80678;BME280;70042;52.494;5.502;2023-08-06T08:06:33;100740.75;;;21.20;68.99
80678;BME280;70042;52.494;5.502;2023-08-06T08:08:58;100742.47;;;21.21;68.98
80678;BME280;70042;52.494;5.502;2023-08-06T08:11:40;100743.31;;;21.21;68.94
80678;BME280;70042;52.494;5.502;2023-08-06T08:14:25;100740.66;;;21.21;68.79
80678;BME280;70042;52.494;5.502;2023-08-06T08:16:51;100743.31;;;21.21;68.61
80678;BME280;70042;52.494;5.502;2023-08-06T08:19:16;100737.03;;;21.24;68.72
80678;BME280;70042;52.494;5.502;2023-08-06T08:21:42;100741.41;;;21.25;68.47
80678;BME280;70042;52.494;5.502;2023-08-06T08:24:07;100749.25;;;21.28;68.43
80678;BME280;70042;52.494;5.502;2023-08-06T08:26:33;100744.81;;;21.28;68.40
80678;BME280;70042;52.494;5.502;2023-08-06T08:28:58;100747.41;;;21.30;68.42
80678;BME280;70042;52.494;5.502;2023-08-06T08:31:26;100743.00;;;21.29;68.39
80678;BME280;70042;52.494;5.502;2023-08-06T08:33:53;100746.59;;;21.28;68.47
80678;BME280;70042;52.494;5.502;2023-08-06T08:36:19;100748.31;;;21.29;68.58
80678;BME280;70042;52.494;5.502;2023-08-06T08:38:44;100736.91;;;21.27;68.63
80678;BME280;70042;52.494;5.502;2023-08-06T08:41:10;100748.38;;;21.27;68.75
80678;BME280;70042;52.494;5.502;2023-08-06T08:43:36;100743.94;;;21.28;68.79
80678;BME280;70042;52.494;5.502;2023-08-06T08:46:02;100741.28;;;21.28;68.28
80678;BME280;70042;52.494;5.502;2023-08-06T08:48:29;100741.34;;;21.26;68.56
80678;BME280;70042;52.494;5.502;2023-08-06T08:51:27;100743.94;;;21.28;68.56
80678;BME280;70042;52.494;5.502;2023-08-06T08:54:13;100749.25;;;21.28;68.45
80678;BME280;70042;52.494;5.502;2023-08-06T08:56:39;100752.84;;;21.27;68.37
80678;BME280;70042;52.494;5.502;2023-08-06T08:59:04;100750.13;;;21.28;68.43
80678;BME280;70042;52.494;5.502;2023-08-06T09:01:30;100749.13;;;21.31;68.32
80678;BME280;70042;52.494;5.502;2023-08-06T09:03:59;100751.72;;;21.33;68.44
80678;BME280;70042;52.494;5.502;2023-08-06T09:06:27;100756.97;;;21.34;68.20
80678;BME280;70042;52.494;5.502;2023-08-06T09:09:01;100760.56;;;21.33;68.59
80678;BME280;70042;52.494;5.502;2023-08-06T09:11:35;100767.59;;;21.34;68.20
80678;BME280;70042;52.494;5.502;2023-08-06T09:14:06;100769.34;;;21.35;68.51
80678;BME280;70042;52.494;5.502;2023-08-06T09:16:36;100766.69;;;21.35;68.37
80678;BME280;70042;52.494;5.502;2023-08-06T09:19:11;100764.88;;;21.36;68.47
80678;BME280;70042;52.494;5.502;2023-08-06T09:21:43;100768.28;;;21.39;68.29
80678;BME280;70042;52.494;5.502;2023-08-06T09:24:09;100775.31;;;21.40;68.24
80678;BME280;70042;52.494;5.502;2023-08-06T09:26:39;100773.59;;;21.39;67.99
80678;BME280;70042;52.494;5.502;2023-08-06T09:29:06;100776.19;;;21.41;68.18
80678;BME280;70042;52.494;5.502;2023-08-06T09:31:43;100780.63;;;21.40;68.32
80678;BME280;70042;52.494;5.502;2023-08-06T09:34:22;100784.22;;;21.39;68.04
80678;BME280;70042;52.494;5.502;2023-08-06T09:36:50;100786.88;;;21.39;68.08
80678;BME280;70042;52.494;5.502;2023-08-06T09:39:18;100791.25;;;21.40;68.15
80678;BME280;70042;52.494;5.502;2023-08-06T09:41:47;100791.25;;;21.40;68.06
80678;BME280;70042;52.494;5.502;2023-08-06T09:44:20;100786.81;;;21.41;68.32
80678;BME280;70042;52.494;5.502;2023-08-06T09:46:50;100796.66;;;21.39;68.46
80678;BME280;70042;52.494;5.502;2023-08-06T09:49:20;100797.53;;;21.39;68.32
80678;BME280;70042;52.494;5.502;2023-08-06T09:51:46;100800.19;;;21.39;68.27
80678;BME280;70042;52.494;5.502;2023-08-06T09:54:16;100792.13;;;21.41;68.18
80678;BME280;70042;52.494;5.502;2023-08-06T09:56:41;100803.63;;;21.41;68.16
80678;BME280;70042;52.494;5.502;2023-08-06T09:59:07;100801.84;;;21.42;68.30
80678;BME280;70042;52.494;5.502;2023-08-06T10:01:34;100804.56;;;21.40;68.14
80678;BME280;70042;52.494;5.502;2023-08-06T10:04:00;100800.94;;;21.43;67.80
80678;BME280;70042;52.494;5.502;2023-08-06T10:06:26;100806.28;;;21.41;68.11
80678;BME280;70042;52.494;5.502;2023-08-06T10:08:53;100798.31;;;21.41;68.22
80678;BME280;70042;52.494;5.502;2023-08-06T10:11:21;100804.41;;;21.43;68.42
80678;BME280;70042;52.494;5.502;2023-08-06T10:13:47;100807.06;;;21.43;68.06
80678;BME280;70042;52.494;5.502;2023-08-06T10:16:14;100808.69;;;21.47;67.86
80678;BME280;70042;52.494;5.502;2023-08-06T10:18:40;100813.00;;;21.50;68.16
80678;BME280;70042;52.494;5.502;2023-08-06T10:21:09;100804.19;;;21.49;68.01
80678;BME280;70042;52.494;5.502;2023-08-06T10:23:36;100808.50;;;21.52;68.10
80678;BME280;70042;52.494;5.502;2023-08-06T10:26:03;100813.84;;;21.52;67.93
80678;BME280;70042;52.494;5.502;2023-08-06T10:28:39;100813.09;;;21.48;67.69
80678;BME280;70042;52.494;5.502;2023-08-06T10:31:05;100810.44;;;21.48;67.78
80678;BME280;70042;52.494;5.502;2023-08-06T10:33:45;100802.31;;;21.51;67.74
80678;BME280;70042;52.494;5.502;2023-08-06T10:36:12;100820.03;;;21.52;67.41
80678;BME280;70042;52.494;5.502;2023-08-06T10:38:46;100816.41;;;21.53;67.95
80678;BME280;70042;52.494;5.502;2023-08-06T10:41:27;100813.00;;;21.50;67.81
80678;BME280;70042;52.494;5.502;2023-08-06T10:44:05;100816.63;;;21.49;68.28
80678;BME280;70042;52.494;5.502;2023-08-06T10:46:33;100820.16;;;21.49;68.53
80678;BME280;70042;52.494;5.502;2023-08-06T10:48:58;100827.13;;;21.52;69.00
80678;BME280;70042;52.494;5.502;2023-08-06T10:51:23;100825.34;;;21.52;68.55
80678;BME280;70042;52.494;5.502;2023-08-06T10:53:49;100819.19;;;21.50;69.06
80678;BME280;70042;52.494;5.502;2023-08-06T10:56:19;100836.94;;;21.50;69.32
80678;BME280;70042;52.494;5.502;2023-08-06T10:58:47;100829.84;;;21.50;69.30
80678;BME280;70042;52.494;5.502;2023-08-06T11:01:13;100828.00;;;21.52;69.17
80678;BME280;70042;52.494;5.502;2023-08-06T11:03:41;100834.91;;;21.56;69.17
80678;BME280;70042;52.494;5.502;2023-08-06T11:06:07;100833.09;;;21.57;68.57
80678;BME280;70042;52.494;5.502;2023-08-06T11:08:37;100846.34;;;21.58;68.40
80678;BME280;70042;52.494;5.502;2023-08-06T11:11:14;100834.75;;;21.59;68.26
80678;BME280;70042;52.494;5.502;2023-08-06T11:13:48;100835.72;;;21.58;68.29
80678;BME280;70042;52.494;5.502;2023-08-06T11:16:15;100840.09;;;21.59;68.26
80678;BME280;70042;52.494;5.502;2023-08-06T11:18:42;100831.31;;;21.57;68.10
80678;BME280;70042;52.494;5.502;2023-08-06T11:21:08;100841.03;;;21.58;68.08
80678;BME280;70042;52.494;5.502;2023-08-06T11:23:35;100835.72;;;21.58;68.08
80678;BME280;70042;52.494;5.502;2023-08-06T11:26:01;100840.22;;;21.56;67.73
80678;BME280;70042;52.494;5.502;2023-08-06T11:28:27;100841.22;;;21.54;67.50
80678;BME280;70042;52.494;5.502;2023-08-06T11:30:52;100843.06;;;21.52;67.45
80678;BME280;70042;52.494;5.502;2023-08-06T11:33:22;100837.00;;;21.48;67.63
80678;BME280;70042;52.494;5.502;2023-08-06T11:35:50;100848.56;;;21.47;67.49
80678;BME280;70042;52.494;5.502;2023-08-06T11:38:16;100851.34;;;21.44;67.60
80678;BME280;70042;52.494;5.502;2023-08-06T11:40:43;100842.63;;;21.41;67.52
80678;BME280;70042;52.494;5.502;2023-08-06T11:43:09;100849.72;;;21.40;67.54
80678;BME280;70042;52.494;5.502;2023-08-06T11:45:35;100855.31;;;21.34;67.18
80678;BME280;70042;52.494;5.502;2023-08-06T11:48:01;100862.53;;;21.31;67.20
80678;BME280;70042;52.494;5.502;2023-08-06T11:50:27;100856.50;;;21.27;67.46
80678;BME280;70042;52.494;5.502;2023-08-06T11:52:57;100859.03;;;21.30;67.60
80678;BME280;70042;52.494;5.502;2023-08-06T11:55:24;100861.72;;;21.28;67.58
80678;BME280;70042;52.494;5.502;2023-08-06T11:57:50;100867.91;;;21.29;67.51
80678;BME280;70042;52.494;5.502;2023-08-06T12:00:23;100874.03;;;21.31;67.70
80678;BME280;70042;52.494;5.502;2023-08-06T12:02:56;100874.09;;;21.30;69.97
80678;BME280;70042;52.494;5.502;2023-08-06T12:05:23;100868.84;;;21.28;70.41
80678;BME280;70042;52.494;5.502;2023-08-06T12:07:51;100866.94;;;21.32;69.83
80678;BME280;70042;52.494;5.502;2023-08-06T12:10:17;100869.59;;;21.32;69.46
80678;BME280;70042;52.494;5.502;2023-08-06T12:12:45;100868.72;;;21.31;69.05
80678;BME280;70042;52.494;5.502;2023-08-06T12:15:11;100874.03;;;21.31;69.22
80678;BME280;70042;52.494;5.502;2023-08-06T12:17:37;100863.34;;;21.33;69.00
80678;BME280;70042;52.494;5.502;2023-08-06T12:20:03;100871.31;;;21.33;69.07
80678;BME280;70042;52.494;5.502;2023-08-06T12:22:34;100882.00;;;21.31;68.75
80678;BME280;70042;52.494;5.502;2023-08-06T12:25:02;100880.16;;;21.33;68.68
80678;BME280;70042;52.494;5.502;2023-08-06T12:27:48;100880.16;;;21.33;68.56
80678;BME280;70042;52.494;5.502;2023-08-06T12:30:16;100888.19;;;21.32;68.40
80678;BME280;70042;52.494;5.502;2023-08-06T12:35:30;100882.13;;;21.28;68.49
80678;BME280;70042;52.494;5.502;2023-08-06T12:37:56;100881.25;;;21.27;68.45
80678;BME280;70042;52.494;5.502;2023-08-06T12:40:22;100882.19;;;21.26;68.34
80678;BME280;70042;52.494;5.502;2023-08-06T12:42:47;100890.91;;;21.30;68.21
80678;BME280;70042;52.494;5.502;2023-08-06T12:45:13;100892.75;;;21.28;68.09
80678;BME280;70042;52.494;5.502;2023-08-06T12:47:39;100890.19;;;21.26;68.33
80678;BME280;70042;52.494;5.502;2023-08-06T12:50:05;100893.69;;;21.27;68.33
80678;BME280;70042;52.494;5.502;2023-08-06T12:52:30;100884.91;;;21.25;67.98
80678;BME280;70042;52.494;5.502;2023-08-06T12:54:56;100895.53;;;21.25;68.34
80678;BME280;70042;52.494;5.502;2023-08-06T12:57:21;100898.81;;;21.32;68.25
80678;BME280;70042;52.494;5.502;2023-08-06T12:59:46;100902.34;;;21.32;67.59
80678;BME280;70042;52.494;5.502;2023-08-06T13:02:13;100904.88;;;21.35;67.74
80678;BME280;70042;52.494;5.502;2023-08-06T13:04:38;100904.75;;;21.38;67.48
80678;BME280;70042;52.494;5.502;2023-08-06T13:07:07;100914.41;;;21.41;67.55
80678;BME280;70042;52.494;5.502;2023-08-06T13:09:33;100911.69;;;21.42;67.11
80678;BME280;70042;52.494;5.502;2023-08-06T13:12:23;100910.75;;;21.43;67.22
80678;BME280;70042;52.494;5.502;2023-08-06T13:15:01;100914.09;;;21.48;67.07
80678;BME280;70042;52.494;5.502;2023-08-06T13:17:26;100923.94;;;21.46;67.18
80678;BME280;70042;52.494;5.502;2023-08-06T13:19:52;100920.34;;;21.47;67.07
80678;BME280;70042;52.494;5.502;2023-08-06T13:22:17;100922.97;;;21.49;66.89
80678;BME280;70042;52.494;5.502;2023-08-06T13:24:42;100928.16;;;21.52;66.75
80678;BME280;70042;52.494;5.502;2023-08-06T13:27:08;100932.66;;;21.50;66.79
80678;BME280;70042;52.494;5.502;2023-08-06T13:29:34;100932.59;;;21.51;66.43
80678;BME280;70042;52.494;5.502;2023-08-06T13:32:00;100929.69;;;21.57;66.58
80678;BME280;70042;52.494;5.502;2023-08-06T13:34:25;100932.22;;;21.60;66.44
80678;BME280;70042;52.494;5.502;2023-08-06T13:36:51;100936.56;;;21.63;66.15
80678;BME280;70042;52.494;5.502;2023-08-06T13:39:16;100941.81;;;21.64;66.23
80678;BME280;70042;52.494;5.502;2023-08-06T13:41:42;100939.97;;;21.66;65.74
80678;BME280;70042;52.494;5.502;2023-08-06T13:44:08;100948.72;;;21.68;65.70
80678;BME280;70042;52.494;5.502;2023-08-06T13:46:33;100946.06;;;21.68;66.03
80678;BME280;70042;52.494;5.502;2023-08-06T13:48:58;100947.81;;;21.69;65.71
80678;BME280;70042;52.494;5.502;2023-08-06T13:51:24;100948.72;;;21.68;65.76
80678;BME280;70042;52.494;5.502;2023-08-06T13:53:49;100955.88;;;21.68;65.82
80678;BME280;70042;52.494;5.502;2023-08-06T13:56:17;100952.22;;;21.70;65.83
80678;BME280;70042;52.494;5.502;2023-08-06T13:58:43;100958.44;;;21.69;66.01
80678;BME280;70042;52.494;5.502;2023-08-06T14:01:10;100956.63;;;21.71;65.91
80678;BME280;70042;52.494;5.502;2023-08-06T14:03:36;100961.06;;;21.71;65.80
80678;BME280;70042;52.494;5.502;2023-08-06T14:06:01;100963.78;;;21.69;65.83
80678;BME280;70042;52.494;5.502;2023-08-06T14:08:27;100964.69;;;21.68;65.87
80678;BME280;70042;52.494;5.502;2023-08-06T14:10:53;100964.59;;;21.71;65.57
80678;BME280;70042;52.494;5.502;2023-08-06T14:13:18;100967.19;;;21.73;65.66
80678;BME280;70042;52.494;5.502;2023-08-06T14:15:44;100975.13;;;21.74;65.93
80678;BME280;70042;52.494;5.502;2023-08-06T14:18:13;100969.66;;;21.77;65.67
80678;BME280;70042;52.494;5.502;2023-08-06T14:20:39;100971.25;;;21.81;65.60
80678;BME280;70042;52.494;5.502;2023-08-06T14:23:04;100978.38;;;21.81;65.31
80678;BME280;70042;52.494;5.502;2023-08-06T14:25:30;100975.66;;;21.83;65.63
80678;BME280;70042;52.494;5.502;2023-08-06T14:27:55;100977.53;;;21.80;65.55
80678;BME280;70042;52.494;5.502;2023-08-06T14:30:20;100977.53;;;21.80;65.34
80678;BME280;70042;52.494;5.502;2023-08-06T14:32:46;100990.00;;;21.78;65.33
80678;BME280;70042;52.494;5.502;2023-08-06T14:35:11;100993.66;;;21.76;65.56
80678;BME280;70042;52.494;5.502;2023-08-06T14:37:36;100990.13;;;21.75;65.42
80678;BME280;70042;52.494;5.502;2023-08-06T14:40:02;101000.75;;;21.75;65.40
80678;BME280;70042;52.494;5.502;2023-08-06T14:42:28;100991.91;;;21.75;65.69
80678;BME280;70042;52.494;5.502;2023-08-06T14:44:53;100995.44;;;21.75;65.52
80678;BME280;70042;52.494;5.502;2023-08-06T14:47:19;101001.75;;;21.73;65.53
80678;BME280;70042;52.494;5.502;2023-08-06T14:49:44;101000.84;;;21.74;65.54
80678;BME280;70042;52.494;5.502;2023-08-06T14:52:16;100997.22;;;21.75;65.49
80678;BME280;70042;52.494;5.502;2023-08-06T14:54:41;101000.63;;;21.78;65.43
80678;BME280;70042;52.494;5.502;2023-08-06T14:57:07;101005.09;;;21.78;65.26
80678;BME280;70042;52.494;5.502;2023-08-06T14:59:33;101009.56;;;21.77;65.48
80678;BME280;70042;52.494;5.502;2023-08-06T15:01:59;101018.47;;;21.76;65.52
80678;BME280;70042;52.494;5.502;2023-08-06T15:04:24;101031.75;;;21.76;65.35
80678;BME280;70042;52.494;5.502;2023-08-06T15:06:49;101041.47;;;21.77;65.44
80678;BME280;70042;52.494;5.502;2023-08-06T15:09:15;101046.91;;;21.74;65.41
80678;BME280;70042;52.494;5.502;2023-08-06T15:11:40;101056.72;;;21.72;65.55
80678;BME280;70042;52.494;5.502;2023-08-06T15:14:06;101064.81;;;21.69;65.55
80678;BME280;70042;52.494;5.502;2023-08-06T15:16:35;101064.81;;;21.69;65.32
80678;BME280;70042;52.494;5.502;2023-08-06T15:19:01;101072.13;;;21.64;65.73
80678;BME280;70042;52.494;5.502;2023-08-06T15:21:27;101070.25;;;21.66;65.57
80678;BME280;70042;52.494;5.502;2023-08-06T15:23:53;101079.16;;;21.65;65.76
80678;BME280;70042;52.494;5.502;2023-08-06T15:26:24;101073.00;;;21.65;65.50
80678;BME280;70042;52.494;5.502;2023-08-06T15:28:50;101079.16;;;21.65;65.73
80678;BME280;70042;52.494;5.502;2023-08-06T15:31:20;101085.34;;;21.66;65.75
80678;BME280;70042;52.494;5.502;2023-08-06T15:34:11;101101.38;;;21.64;65.44
80678;BME280;70042;52.494;5.502;2023-08-06T15:37:11;101098.72;;;21.64;65.56
80678;BME280;70042;52.494;5.502;2023-08-06T15:39:39;101099.63;;;21.63;65.63
80678;BME280;70042;52.494;5.502;2023-08-06T15:42:05;101109.47;;;21.61;65.81
80678;BME280;70042;52.494;5.502;2023-08-06T15:44:31;101116.63;;;21.59;65.84
80678;BME280;70042;52.494;5.502;2023-08-06T15:46:56;101110.38;;;21.60;65.75
80678;BME280;70042;52.494;5.502;2023-08-06T15:49:24;101123.69;;;21.60;65.68
80678;BME280;70042;52.494;5.502;2023-08-06T15:51:50;101116.72;;;21.56;66.04
80678;BME280;70042;52.494;5.502;2023-08-06T15:54:18;101124.03;;;21.51;65.95
80678;BME280;70042;52.494;5.502;2023-08-06T15:56:43;101119.72;;;21.47;65.94
80678;BME280;70042;52.494;5.502;2023-08-06T15:59:26;101125.88;;;21.49;65.86
80678;BME280;70042;52.494;5.502;2023-08-06T16:01:53;101131.25;;;21.48;65.80
80678;BME280;70042;52.494;5.502;2023-08-06T16:04:18;101131.31;;;21.46;65.99
80678;BME280;70042;52.494;5.502;2023-08-06T16:06:44;101133.84;;;21.49;66.03
80678;BME280;70042;52.494;5.502;2023-08-06T16:09:09;101131.34;;;21.45;65.82
80678;BME280;70042;52.494;5.502;2023-08-06T16:11:35;101141.88;;;21.48;65.71
80678;BME280;70042;52.494;5.502;2023-08-06T16:14:00;101136.50;;;21.49;65.59
80678;BME280;70042;52.494;5.502;2023-08-06T16:16:25;101150.72;;;21.48;65.50
80678;BME280;70042;52.494;5.502;2023-08-06T16:18:51;101146.22;;;21.50;65.64
80678;BME280;70042;52.494;5.502;2023-08-06T16:21:16;101154.06;;;21.53;65.39
80678;BME280;70042;52.494;5.502;2023-08-06T16:23:42;101148.88;;;21.50;65.57
80678;BME280;70042;52.494;5.502;2023-08-06T16:26:07;101141.06;;;21.46;65.72
80678;BME280;70042;52.494;5.502;2023-08-06T16:28:32;101153.41;;;21.47;65.75
80678;BME280;70042;52.494;5.502;2023-08-06T16:30:58;101157.06;;;21.44;65.59
80678;BME280;70042;52.494;5.502;2023-08-06T16:33:23;101150.00;;;21.43;65.55